Latest Weather Observations for Mount Gambier

IDS60801

Issued at 2:35 am CDT Monday 24 November 2014 (issued every 30 minutes, with the page automatically refreshed every 10 minutes)

About weather observations | Map of weather stations | Latest weather observations for SA | Other Formats
Station Details ID: 026021 Name: MOUNT GAMBIER AERO Lat: -37.75 Lon: 140.77 Height: 63.0 m
Data from the previous 72 hours. | See also: Recent months at Mount Gambier
Date/Time
CDT
Temp
°C
App
Temp
°C
Dew
Point
Rel
Hum
%
Delta-T
°C
Wind Press
QNH
hPa
Press
MSL
hPa
Rain
since 9 am
mm
Dir
 
Spd
km/h
Gust
km/h
Spd
kts
Gust
kts
24/02:30am 12.6 10.7 10.5 87 1.1 SW 11 13 6 7 1009.4 - 0.0
24/02:00am 12.5 11.8 10.0 85 1.3 SSE 4 7 2 4 1008.9 - 0.0
24/01:30am 13.3 12.0 10.0 80 1.7 E 7 9 4 5 1009.0 - 0.0
24/01:00am 13.8 13.3 10.8 82 1.6 SE 4 6 2 3 1010.0 - 0.0
24/12:30am 14.5 12.7 10.9 79 1.9 ENE 11 13 6 7 1010.7 - 0.0
24/12:00am 14.2 13.4 11.0 81 1.7 SE 6 7 3 4 1011.0 1011.0 0.0
 
Date/Time
CDT
Temp
°C
App
Temp
°C
Dew
Point
Rel
Hum
%
Delta-T
°C
Wind Press
QNH
hPa
Press
MSL
hPa
Rain
since 9 am
mm
Dir
 
Spd
km/h
Gust
km/h
Spd
kts
Gust
kts
23/11:30pm 14.2 14.6 11.2 82 1.6 CALM 0 4 0 2 1011.9 - 0.0
23/11:00pm 14.6 13.1 10.6 77 2.1 ENE 9 11 5 6 1012.0 - 0.0
23/10:30pm 14.5 13.6 10.5 77 2.1 E 6 9 3 5 1012.5 - 0.0
23/10:00pm 14.8 13.7 10.6 76 2.2 SE 7 11 4 6 1012.6 - 0.0
23/09:30pm 15.2 13.7 10.7 74 2.4 SE 9 9 5 5 1011.9 - 0.0
23/09:00pm 15.6 13.3 10.3 70 2.8 S 13 15 7 8 1011.8 1011.7 0.0
23/08:30pm 16.0 13.7 10.3 69 3.0 SSW 13 17 7 9 1012.1 - 0.0
23/08:00pm 16.9 14.7 9.5 61 3.9 SW 11 15 6 8 1011.4 - 0.0
23/07:30pm 17.4 14.8 9.2 58 4.3 WSW 13 15 7 8 1012.1 - 0.0
23/07:00pm 18.0 14.4 8.3 53 5.0 W 17 22 9 12 1011.9 - 0.0
23/06:30pm 18.7 14.6 8.0 49 5.5 WSW 19 28 10 15 1011.2 - 0.0
23/06:00pm 20.4 16.7 8.1 45 6.4 WSW 17 26 9 14 1011.2 1011.2 0.0
23/05:30pm 21.2 17.3 7.0 39 7.3 WSW 17 22 9 12 1010.5 - 0.0
23/05:00pm 22.2 17.9 7.7 39 7.6 W 20 26 11 14 1011.1 - 0.0
23/04:30pm 23.2 18.2 8.1 38 8.0 W 24 32 13 17 1011.3 - 0.0
23/04:00pm 24.0 19.6 8.8 38 8.2 SW 22 30 12 16 1011.7 - 0.0
23/03:30pm 24.0 19.1 10.0 41 7.7 WSW 26 33 14 18 1011.6 - 0.0
23/03:00pm 25.1 21.0 10.1 38 8.3 WNW 22 37 12 20 1011.6 1011.5 0.0
23/02:30pm 25.1 21.1 9.2 36 8.7 W 20 32 11 17 1011.6 - 0.0
23/02:00pm 24.2 21.7 9.6 39 8.0 W 13 22 7 12 1011.3 - 0.0
23/01:30pm 23.6 21.2 8.7 38 8.0 WNW 11 19 6 10 1011.6 - 0.0
23/01:00pm 23.7 20.0 9.3 40 7.8 NW 19 24 10 13 1011.6 - 0.0
23/12:30pm 24.1 21.6 8.4 36 8.4 W 11 17 6 9 1011.9 - 0.0
23/12:00pm 21.5 19.3 9.4 46 6.5 WSW 11 20 6 11 1011.7 1011.6 0.0
23/11:30am 20.5 18.6 9.0 47 6.1 NW 9 22 5 12 1012.1 - 0.0
23/11:00am 20.5 17.5 7.8 44 6.6 NNW 13 24 7 13 1012.4 - 0.0
23/10:30am 20.0 16.6 7.8 45 6.3 NNW 15 24 8 13 1012.5 - 0.0
23/10:00am 18.3 16.4 9.2 55 4.8 NNW 9 17 5 9 1012.7 - 0.0
23/09:30am 17.6 15.9 9.9 60 4.1 N 9 13 5 7 1012.9 - 0.0
23/09:00am 16.7 15.8 12.7 77 2.2 N 9 13 5 7 1013.2 1013.1 0.0
23/08:35am 14.5 13.7 12.9 90 0.9 NNE 9 11 5 6 1013.1 - 0.0
23/08:30am 14.2 13.3 12.7 91 0.8 NNE 9 13 5 7 1013.1 - 0.0
23/08:07am 13.9 12.1 13.2 96 0.4 NNE 15 17 8 9 1013.2 - 0.0
23/08:00am 13.7 12.2 13.0 96 0.4 NE 13 17 7 9 1013.1 - 0.0
23/07:30am 12.2 11.1 12.0 99 0.1 NNE 9 13 5 7 1012.4 - 0.0
23/07:00am 11.6 9.5 11.2 97 0.2 NE 13 17 7 9 1012.1 - 0.0
23/06:38am 9.2 7.6 8.8 97 0.2 NW 7 9 4 5 1011.8 - 0.0
23/06:30am 8.4 6.6 8.0 97 0.2 NW 7 7 4 4 1011.8 - 0.0
23/06:17am 8.2 7.4 8.2 100 0.0 WNW 2 9 1 5 1011.7 - 0.0
23/06:04am 7.9 7.4 7.7 99 0.1 CALM 0 0 0 0 1011.6 - 0.0
23/06:00am 7.5 6.8 7.1 97 0.2 CALM 0 0 0 0 1011.6 1011.5 0.0
23/05:30am 8.2 7.7 8.0 99 0.1 CALM 0 6 0 3 1011.2 - 0.0
23/05:14am 7.8 7.2 7.6 99 0.1 CALM 0 0 0 0 1011.0 - 0.0
23/05:00am 8.5 7.4 8.3 99 0.1 NW 4 7 2 4 1011.0 - 0.0
23/04:43am 9.1 7.7 8.9 99 0.1 NW 6 11 3 6 1011.0 - 0.0
23/04:30am 8.9 7.8 8.5 97 0.2 NNE 4 7 2 4 1010.9 - 0.0
23/04:02am 8.0 7.5 7.8 99 0.1 CALM 0 0 0 0 1010.8 - 0.0
23/04:00am 8.0 7.5 7.8 99 0.1 CALM 0 0 0 0 1010.9 - 0.0
23/03:30am 9.5 9.0 9.3 99 0.1 W 2 7 1 4 1010.7 - 0.0
23/03:00am 10.3 9.6 9.9 97 0.2 WNW 4 7 2 4 1010.7 1010.7 0.0
23/02:55am 10.0 10.0 9.8 99 0.1 CALM 0 7 0 4 1010.7 - 0.0
23/02:33am 10.2 9.1 10.0 99 0.1 NNE 6 7 3 4 1010.8 - 0.0
23/02:30am 10.3 9.0 10.1 99 0.1 NNE 7 7 4 4 1010.8 - 0.0
23/02:00am 10.5 9.2 10.1 97 0.2 NW 7 9 4 5 1010.8 - 0.0
23/01:30am 10.7 9.2 10.5 99 0.1 NW 9 9 5 5 1011.0 - 0.0
23/01:16am 10.9 9.3 10.3 96 0.3 NW 9 11 5 6 1011.1 - 0.0
23/01:00am 11.4 10.0 11.0 97 0.2 NW 9 11 5 6 1011.3 - 0.0
23/12:30am 11.5 10.2 11.1 97 0.2 NW 9 11 5 6 1011.4 - 0.0
23/12:24am 11.7 10.0 11.1 96 0.3 WNW 11 11 6 6 1011.4 - 0.0
23/12:00am 12.1 11.8 11.5 96 0.3 WNW 4 6 2 3 1011.3 1011.3 0.0
 
Date/Time
CDT
Temp
°C
App
Temp
°C
Dew
Point
Rel
Hum
%
Delta-T
°C
Wind Press
QNH
hPa
Press
MSL
hPa
Rain
since 9 am
mm
Dir
 
Spd
km/h
Gust
km/h
Spd
kts
Gust
kts
22/11:46pm 12.1 11.2 11.5 96 0.3 NW 7 9 4 5 1011.1 - 0.0
22/11:30pm 12.1 11.2 11.5 96 0.3 NW 7 7 4 4 1010.9 - 0.0
22/11:00pm 12.3 11.1 11.5 95 0.4 NW 9 9 5 5 1010.9 - 0.0
22/10:30pm 13.4 12.3 12.1 92 0.7 W 9 9 5 5 1010.9 - 0.0
22/10:00pm 13.9 12.9 12.4 91 0.8 W 9 11 5 6 1010.7 - 0.0
22/09:30pm 14.4 12.7 12.4 88 1.1 W 13 15 7 8 1010.2 - 0.0
22/09:00pm 14.8 13.4 12.2 84 1.4 WSW 11 13 6 7 1010.0 1010.0 0.0
22/08:30pm 15.3 13.1 12.2 82 1.7 SW 15 19 8 10 1009.3 - 0.0
22/08:00pm 16.7 14.0 11.8 73 2.7 SW 17 24 9 13 1008.6 - 0.0
22/07:30pm 17.8 14.6 11.8 68 3.3 SW 20 28 11 15 1008.0 - 0.0
22/07:00pm 18.8 14.0 11.8 64 3.9 SW 28 37 15 20 1007.4 - 0.0
22/06:30pm 20.0 15.3 12.0 60 4.5 SW 28 41 15 22 1007.0 - 0.0
22/06:00pm 21.1 16.8 12.1 56 5.1 WSW 26 41 14 22 1006.4 1006.4 0.0
22/05:30pm 22.7 17.0 13.0 54 5.6 WSW 35 44 19 24 1005.8 - 0.0
22/05:00pm 23.1 16.8 12.2 50 6.2 W 37 48 20 26 1006.2 - 0.0
22/04:35pm 25.5 19.3 11.5 41 8.0 W 35 46 19 25 1005.5 - 0.0
22/04:30pm 26.0 19.2 10.5 37 8.7 WNW 37 50 20 27 1005.4 - 0.0
22/04:07pm 25.8 18.6 10.7 38 8.5 NW 39 59 21 32 1005.3 - 0.0
22/04:00pm 26.3 19.5 12.1 41 8.2 WNW 39 54 21 29 1005.2 - 0.0
22/03:30pm 26.0 19.4 11.5 40 8.3 W 37 52 20 28 1005.0 - 0.0
22/03:08pm 26.4 20.0 10.6 37 8.9 WNW 35 54 19 29 1004.7 - 0.0
22/03:00pm 27.1 20.8 11.2 37 9.1 WNW 35 50 19 27 1004.6 1004.6 0.0
22/02:30pm 29.4 21.5 10.8 31 10.6 WNW 43 50 23 27 1004.5 - 0.0
22/02:01pm 29.5 21.8 10.2 30 10.9 NW 41 59 22 32 1004.5 - 0.0
22/02:00pm 29.6 21.5 10.1 29 11.0 NW 43 59 23 32 1004.6 - 0.0
22/01:54pm 28.9 20.7 9.7 30 10.8 NW 43 54 23 29 1004.6 - 0.0
22/01:32pm 29.3 22.8 8.2 26 11.6 NNW 32 50 17 27 1004.8 - 0.0
22/01:30pm 29.2 22.1 8.1 26 11.5 NNW 35 50 19 27 1004.8 - 0.0
22/01:23pm 29.2 21.7 7.8 26 11.7 NNW 37 56 20 30 1004.9 - 0.0
22/01:00pm 28.1 19.5 6.4 25 11.5 NNW 41 56 22 30 1005.2 - 0.0
22/12:39pm 28.1 21.2 6.4 25 11.5 NNW 32 50 17 27 1005.2 - 0.0
22/12:37pm 28.1 21.1 6.1 24 11.6 N 32 43 17 23 1005.2 - 0.0
22/12:30pm 29.2 20.7 6.9 24 12.0 NW 41 52 22 28 1005.3 - 0.0
22/12:29pm 29.6 20.7 6.7 23 12.3 NW 43 52 23 28 1005.2 - 0.0
22/12:00pm 27.8 20.2 5.9 25 11.5 N 35 54 19 29 1005.3 1005.3 0.0
22/11:30am 26.3 18.7 5.6 26 10.7 N 35 54 19 29 1005.5 - 0.0
22/11:01am 26.9 19.2 7.3 29 10.4 N 37 56 20 30 1005.7 - 0.0
22/11:00am 26.8 19.9 7.1 28 10.5 N 33 46 18 25 1005.7 - 0.0
22/10:51am 26.0 18.1 6.3 28 10.3 N 37 57 20 31 1005.7 - 0.0
22/10:30am 25.7 19.0 8.0 32 9.5 N 33 50 18 27 1006.0 - 0.0
22/10:07am 23.6 17.4 8.0 36 8.3 N 30 48 16 26 1006.2 - 0.0
22/10:00am 23.8 17.4 8.5 37 8.2 N 32 39 17 21 1006.2 - 0.0
22/09:30am 20.8 15.7 9.2 47 6.2 N 26 35 14 19 1006.5 - 0.0
22/09:00am 17.9 13.0 9.8 59 4.3 NNE 26 32 14 17 1006.7 1006.7 0.8
22/08:30am 16.2 11.9 9.3 63 3.6 NNE 22 30 12 16 1007.0 - 0.8
22/08:00am 14.8 9.6 10.2 74 2.4 N 28 39 15 21 1008.0 - 0.8
22/07:30am 14.4 10.8 10.4 77 2.1 NNE 20 30 11 16 1007.5 - 0.8
22/07:00am 14.2 10.2 10.4 78 2.0 NNE 22 28 12 15 1006.8 - 0.8
22/06:30am 12.8 8.5 10.7 87 1.1 NNE 24 32 13 17 1006.6 - 0.8
22/06:00am 12.2 8.4 11.1 93 0.6 NE 22 28 12 15 1006.8 1006.8 0.8
22/05:30am 12.2 10.6 11.4 95 0.4 E 11 15 6 8 1008.1 - 0.8
22/05:00am 12.2 11.0 11.6 96 0.3 NE 9 11 5 6 1009.0 - 0.8
22/04:30am 12.3 11.0 11.4 94 0.5 N 9 11 5 6 1009.4 - 0.8
22/04:00am 11.9 10.9 11.1 95 0.4 ESE 7 11 4 6 1008.2 - 0.8
22/03:30am 12.0 10.2 10.9 93 0.6 E 11 13 6 7 1008.3 - 0.8
22/03:00am 12.5 11.5 11.0 90 0.8 SE 7 11 4 6 1009.3 1009.3 0.8
22/02:30am 12.8 9.9 10.9 88 1.0 SW 17 20 9 11 1010.6 - 0.8
22/02:01am 13.6 8.3 9.7 77 2.0 SW 28 52 15 28 1010.5 - 0.0
22/02:00am 13.6 8.3 9.7 77 2.0 SW 28 41 15 22 1010.2 - 0.0
22/01:58am 13.9 9.3 9.8 76 2.1 SW 24 35 13 19 1010.0 - 0.0
22/01:30am 13.5 10.1 9.2 75 2.2 NNE 17 19 9 10 1008.0 - 0.0
22/01:00am 13.6 10.6 9.1 74 2.3 NNE 15 17 8 9 1008.4 - 0.0
22/12:30am 13.7 10.3 9.2 74 2.3 NNE 17 19 9 10 1009.2 - 0.0
22/12:00am 14.0 10.2 9.1 72 2.5 NNE 19 19 10 10 1009.7 1009.7 0.0
 
Date/Time
CDT
Temp
°C
App
Temp
°C
Dew
Point
Rel
Hum
%
Delta-T
°C
Wind Press
QNH
hPa
Press
MSL
hPa
Rain
since 9 am
mm
Dir
 
Spd
km/h
Gust
km/h
Spd
kts
Gust
kts
21/11:30pm 13.9 11.3 9.2 73 2.4 NNE 13 15 7 8 1010.3 - 0.0
21/11:00pm 12.7 10.5 9.4 80 1.7 NE 11 17 6 9 1010.5 - 0.0
21/10:30pm 13.9 12.7 9.4 74 2.3 N 6 7 3 4 1011.3 - 0.0
21/10:00pm 13.6 12.5 9.9 78 1.9 N 6 7 3 4 1011.6 - 0.0
21/09:30pm 14.3 14.1 9.2 71 2.6 CALM 0 0 0 0 1011.4 - 0.0
21/09:00pm 14.4 14.4 9.8 74 2.4 CALM 0 0 0 0 1011.6 1011.5 0.0
21/08:30pm 14.9 14.7 9.1 68 3.0 CALM 0 0 0 0 1011.1 - 0.0
21/08:00pm 16.0 13.8 9.3 64 3.5 W 11 13 6 7 1011.2 - 0.0
21/07:30pm 17.6 14.9 9.0 57 4.5 W 13 17 7 9 1011.3 - 0.0
21/07:00pm 18.6 15.1 8.6 52 5.2 W 17 20 9 11 1010.9 - 0.0
21/06:30pm 19.1 14.9 8.1 49 5.7 W 20 28 11 15 1010.6 - 0.0
21/06:00pm 19.3 13.8 9.1 51 5.4 W 28 37 15 20 1010.7 1010.7 0.0
21/05:30pm 19.3 13.2 9.8 54 5.1 W 32 39 17 21 1010.5 - 0.0
21/05:00pm 21.6 16.7 9.8 47 6.4 WNW 26 35 14 19 1010.2 - 0.0
21/04:30pm 21.9 18.3 10.0 46 6.5 W 19 28 10 15 1010.0 - 0.0
21/04:00pm 21.1 16.7 10.5 50 5.8 W 24 33 13 18 1010.3 - 0.0
21/03:30pm 21.6 17.6 10.5 49 6.1 WSW 22 33 12 18 1010.4 - 0.0
21/03:00pm 20.6 16.4 9.6 49 5.9 W 22 32 12 17 1010.6 1010.6 0.0
21/02:30pm 20.3 16.5 7.5 43 6.6 NW 17 24 9 13 1010.7 - 0.0
21/02:00pm 22.4 18.3 8.0 39 7.6 NW 19 32 10 17 1011.0 - 0.0
21/01:30pm 20.9 17.0 8.6 45 6.5 NNW 19 28 10 15 1011.3 - 0.0
21/01:00pm 19.2 15.5 8.0 48 5.8 N 17 28 9 15 1011.6 - 0.0
21/12:30pm 20.5 16.4 8.5 46 6.3 NNW 20 30 11 16 1011.9 - 0.0
21/12:00pm 19.2 16.4 8.7 50 5.5 WNW 13 20 7 11 1012.1 1012.0 0.0
21/11:30am 18.5 15.6 8.2 51 5.3 WNW 13 24 7 13 1012.2 - 0.0
21/11:00am 17.7 14.5 8.4 54 4.8 NNW 15 19 8 10 1012.3 - 0.0
21/10:30am 16.5 14.0 8.3 58 4.2 SW 11 15 6 8 1012.4 - 0.0
21/10:00am 15.7 12.9 8.4 62 3.7 NW 13 19 7 10 1012.5 - 0.0
21/09:30am 14.7 12.2 8.1 64 3.3 WSW 11 15 6 8 1012.5 - 0.0
21/09:00am 14.7 12.7 8.6 67 3.1 WNW 9 17 5 9 1012.4 1012.3 4.2
21/08:30am 14.0 12.3 9.7 75 2.2 NW 9 13 5 7 1012.3 - 4.2
21/08:00am 12.8 11.0 9.5 80 1.7 NNW 9 13 5 7 1012.0 - 4.2
21/07:30am 12.3 10.4 9.1 81 1.6 NW 9 11 5 6 1011.4 - 4.2
21/07:00am 10.3 8.4 8.9 91 0.7 NNW 9 11 5 6 1011.0 - 4.2
21/06:30am 9.5 7.4 8.3 92 0.6 WNW 9 11 5 6 1010.9 - 4.2
21/06:00am 9.2 8.3 7.7 90 0.7 WNW 2 6 1 3 1010.2 1010.2 4.2
21/05:30am 9.5 7.6 7.6 88 0.9 W 7 9 4 5 1010.7 - 4.2
21/05:00am 9.8 7.6 7.7 87 1.0 W 9 13 5 7 1010.3 - 4.2
21/04:30am 9.9 7.4 8.3 90 0.8 W 11 13 6 7 1010.2 - 4.2
21/04:00am 10.3 7.5 8.7 90 0.8 W 13 13 7 7 1009.6 - 4.2
21/03:30am 10.6 8.4 9.2 91 0.7 W 11 13 6 7 1009.1 - 4.2
21/03:00am 10.9 8.8 9.7 92 0.6 W 11 13 6 7 1009.0 1009.0 4.2

Other Formats:

Comma delimited format used in spreadsheet applications
http://www.bom.gov.au/fwo/IDS60801/IDS60801.94821.axf

JavaScript Object Notation format (JSON) in row-major order
http://www.bom.gov.au/fwo/IDS60801/IDS60801.94821.json